sensor_id;sensor_type;location;lat;lon;timestamp;P1;durP1;ratioP1;P2;durP2;ratioP2
13075;SDS011;6604;52.484;13.330;2023-06-22T07:48:16;4.10;;;2.57;;
13075;SDS011;6604;52.484;13.330;2023-06-22T07:50:43;4.00;;;2.97;;
13075;SDS011;6604;52.484;13.330;2023-06-22T07:53:09;3.33;;;3.03;;
13075;SDS011;6604;52.484;13.330;2023-06-22T07:55:38;4.33;;;2.50;;
13075;SDS011;6604;52.484;13.330;2023-06-22T07:58:04;4.63;;;3.50;;
13075;SDS011;6604;52.484;13.330;2023-06-22T08:00:31;3.33;;;3.10;;
13075;SDS011;6604;52.484;13.330;2023-06-22T08:02:58;3.30;;;3.00;;
13075;SDS011;6604;52.484;13.330;2023-06-22T08:05:33;4.40;;;3.10;;
13075;SDS011;6604;52.484;13.330;2023-06-22T08:07:59;5.00;;;3.10;;
13075;SDS011;6604;52.484;13.330;2023-06-22T08:10:26;3.87;;;2.90;;
13075;SDS011;6604;52.484;13.330;2023-06-22T08:12:53;2.93;;;2.67;;
13075;SDS011;6604;52.484;13.330;2023-06-22T08:15:19;3.37;;;2.73;;
13075;SDS011;6604;52.484;13.330;2023-06-22T08:17:47;3.43;;;2.97;;
13075;SDS011;6604;52.484;13.330;2023-06-22T08:20:13;3.03;;;2.80;;
13075;SDS011;6604;52.484;13.330;2023-06-22T08:22:42;3.90;;;3.20;;
13075;SDS011;6604;52.484;13.330;2023-06-22T08:25:10;5.40;;;3.10;;
13075;SDS011;6604;52.484;13.330;2023-06-22T08:27:38;3.07;;;2.77;;
13075;SDS011;6604;52.484;13.330;2023-06-22T08:30:05;4.30;;;3.03;;
13075;SDS011;6604;52.484;13.330;2023-06-22T08:32:34;4.30;;;2.90;;
13075;SDS011;6604;52.484;13.330;2023-06-22T08:35:02;4.20;;;3.03;;
13075;SDS011;6604;52.484;13.330;2023-06-22T08:37:29;3.90;;;3.50;;
13075;SDS011;6604;52.484;13.330;2023-06-22T08:40:02;4.17;;;3.20;;
13075;SDS011;6604;52.484;13.330;2023-06-22T08:42:30;4.60;;;3.57;;
13075;SDS011;6604;52.484;13.330;2023-06-22T08:44:57;5.03;;;2.90;;
13075;SDS011;6604;52.484;13.330;2023-06-22T08:47:23;5.27;;;3.23;;
13075;SDS011;6604;52.484;13.330;2023-06-22T08:49:50;6.03;;;3.57;;
13075;SDS011;6604;52.484;13.330;2023-06-22T08:52:19;4.57;;;3.60;;
13075;SDS011;6604;52.484;13.330;2023-06-22T08:54:46;5.07;;;3.47;;
13075;SDS011;6604;52.484;13.330;2023-06-22T08:57:16;4.57;;;3.13;;
13075;SDS011;6604;52.484;13.330;2023-06-22T08:59:45;5.43;;;3.47;;
13075;SDS011;6604;52.484;13.330;2023-06-22T09:02:15;4.77;;;3.20;;
13075;SDS011;6604;52.484;13.330;2023-06-22T09:04:45;6.40;;;4.20;;
13075;SDS011;6604;52.484;13.330;2023-06-22T09:07:12;4.70;;;3.80;;
13075;SDS011;6604;52.484;13.330;2023-06-22T09:09:38;7.80;;;3.30;;
13075;SDS011;6604;52.484;13.330;2023-06-22T09:12:05;4.53;;;3.90;;
13075;SDS011;6604;52.484;13.330;2023-06-22T09:14:37;4.20;;;3.80;;
13075;SDS011;6604;52.484;13.330;2023-06-22T09:17:04;4.37;;;3.47;;
13075;SDS011;6604;52.484;13.330;2023-06-22T09:19:31;3.60;;;3.30;;
13075;SDS011;6604;52.484;13.330;2023-06-22T09:21:58;3.60;;;3.00;;
13075;SDS011;6604;52.484;13.330;2023-06-22T09:24:25;3.17;;;2.87;;
13075;SDS011;6604;52.484;13.330;2023-06-22T09:26:51;4.57;;;3.23;;
13075;SDS011;6604;52.484;13.330;2023-06-22T09:29:18;4.87;;;4.30;;
13075;SDS011;6604;52.484;13.330;2023-06-22T09:31:46;4.40;;;3.00;;
13075;SDS011;6604;52.484;13.330;2023-06-22T09:34:15;3.73;;;2.93;;
13075;SDS011;6604;52.484;13.330;2023-06-22T09:36:45;5.00;;;3.20;;
13075;SDS011;6604;52.484;13.330;2023-06-22T09:39:12;4.80;;;3.30;;
13075;SDS011;6604;52.484;13.330;2023-06-22T09:41:39;6.63;;;3.30;;
13075;SDS011;6604;52.484;13.330;2023-06-22T09:44:05;3.07;;;2.77;;
13075;SDS011;6604;52.484;13.330;2023-06-22T09:46:34;3.97;;;2.80;;
13075;SDS011;6604;52.484;13.330;2023-06-22T09:49:10;2.90;;;2.60;;
13075;SDS011;6604;52.484;13.330;2023-06-22T09:51:39;3.37;;;2.87;;
13075;SDS011;6604;52.484;13.330;2023-06-22T09:54:06;3.40;;;3.10;;
13075;SDS011;6604;52.484;13.330;2023-06-22T09:56:35;4.47;;;3.33;;
13075;SDS011;6604;52.484;13.330;2023-06-22T09:59:05;5.17;;;3.20;;
13075;SDS011;6604;52.484;13.330;2023-06-22T10:01:32;3.90;;;3.50;;
13075;SDS011;6604;52.484;13.330;2023-06-22T10:03:59;5.33;;;3.00;;
13075;SDS011;6604;52.484;13.330;2023-06-22T10:06:27;8.63;;;3.90;;
13075;SDS011;6604;52.484;13.330;2023-06-22T10:08:54;3.73;;;3.40;;
13075;SDS011;6604;52.484;13.330;2023-06-22T10:11:21;3.97;;;3.53;;
13075;SDS011;6604;52.484;13.330;2023-06-22T10:13:52;4.17;;;3.77;;
13075;SDS011;6604;52.484;13.330;2023-06-22T10:16:18;5.50;;;4.97;;
13075;SDS011;6604;52.484;13.330;2023-06-22T10:18:45;6.40;;;4.27;;
13075;SDS011;6604;52.484;13.330;2023-06-22T10:21:12;4.03;;;3.63;;
13075;SDS011;6604;52.484;13.330;2023-06-22T10:23:40;4.27;;;3.83;;
13075;SDS011;6604;52.484;13.330;2023-06-22T10:26:06;4.47;;;3.70;;
13075;SDS011;6604;52.484;13.330;2023-06-22T10:28:33;4.17;;;3.77;;
13075;SDS011;6604;52.484;13.330;2023-06-22T10:30:59;4.20;;;3.80;;
13075;SDS011;6604;52.484;13.330;2023-06-22T10:33:26;4.60;;;4.10;;
13075;SDS011;6604;52.484;13.330;2023-06-22T10:35:52;5.50;;;3.80;;
13075;SDS011;6604;52.484;13.330;2023-06-22T10:38:19;3.90;;;3.33;;
13075;SDS011;6604;52.484;13.330;2023-06-22T10:40:47;5.30;;;3.40;;
13075;SDS011;6604;52.484;13.330;2023-06-22T10:43:15;5.10;;;3.70;;
13075;SDS011;6604;52.484;13.330;2023-06-22T10:45:42;7.87;;;6.03;;
13075;SDS011;6604;52.484;13.330;2023-06-22T10:48:11;6.13;;;3.73;;
13075;SDS011;6604;52.484;13.330;2023-06-22T10:50:41;4.80;;;3.53;;
13075;SDS011;6604;52.484;13.330;2023-06-22T10:53:07;4.37;;;3.43;;
13075;SDS011;6604;52.484;13.330;2023-06-22T10:55:34;3.80;;;3.50;;
13075;SDS011;6604;52.484;13.330;2023-06-22T10:58:02;4.83;;;3.50;;
13075;SDS011;6604;52.484;13.330;2023-06-22T11:00:29;3.43;;;3.13;;
13075;SDS011;6604;52.484;13.330;2023-06-22T11:02:56;5.60;;;3.83;;
13075;SDS011;6604;52.484;13.330;2023-06-22T11:05:23;4.33;;;3.57;;
13075;SDS011;6604;52.484;13.330;2023-06-22T11:07:50;4.30;;;3.20;;
13075;SDS011;6604;52.484;13.330;2023-06-22T11:10:19;3.67;;;3.37;;
13075;SDS011;6604;52.484;13.330;2023-06-22T11:12:45;6.03;;;4.83;;
13075;SDS011;6604;52.484;13.330;2023-06-22T11:15:16;3.97;;;3.10;;
13075;SDS011;6604;52.484;13.330;2023-06-22T11:17:42;3.73;;;3.20;;
13075;SDS011;6604;52.484;13.330;2023-06-22T11:20:09;3.47;;;3.17;;
13075;SDS011;6604;52.484;13.330;2023-06-22T11:22:37;4.13;;;3.47;;
13075;SDS011;6604;52.484;13.330;2023-06-22T11:25:04;4.13;;;3.60;;
13075;SDS011;6604;52.484;13.330;2023-06-22T11:27:31;5.30;;;3.30;;
13075;SDS011;6604;52.484;13.330;2023-06-22T11:29:58;4.00;;;3.60;;
13075;SDS011;6604;52.484;13.330;2023-06-22T11:32:26;4.83;;;3.90;;
13075;SDS011;6604;52.484;13.330;2023-06-22T11:34:52;4.03;;;3.37;;
13075;SDS011;6604;52.484;13.330;2023-06-22T11:37:20;4.77;;;3.90;;
13075;SDS011;6604;52.484;13.330;2023-06-22T11:39:47;3.80;;;3.50;;
13075;SDS011;6604;52.484;13.330;2023-06-22T11:42:15;4.00;;;3.60;;
13075;SDS011;6604;52.484;13.330;2023-06-22T11:44:48;5.00;;;3.50;;
13075;SDS011;6604;52.484;13.330;2023-06-22T11:47:18;4.47;;;3.60;;
13075;SDS011;6604;52.484;13.330;2023-06-22T11:49:46;3.70;;;3.40;;
13075;SDS011;6604;52.484;13.330;2023-06-22T11:52:14;3.90;;;3.53;;
13075;SDS011;6604;52.484;13.330;2023-06-22T11:54:42;3.60;;;3.30;;
13075;SDS011;6604;52.484;13.330;2023-06-22T11:57:09;13.30;;;4.40;;
13075;SDS011;6604;52.484;13.330;2023-06-22T11:59:36;16.63;;;4.60;;
13075;SDS011;6604;52.484;13.330;2023-06-22T12:02:06;6.17;;;5.20;;
13075;SDS011;6604;52.484;13.330;2023-06-22T12:04:34;4.70;;;4.27;;
13075;SDS011;6604;52.484;13.330;2023-06-22T12:07:03;6.13;;;3.73;;
13075;SDS011;6604;52.484;13.330;2023-06-22T12:09:33;4.30;;;3.90;;
13075;SDS011;6604;52.484;13.330;2023-06-22T12:12:01;4.33;;;3.93;;
13075;SDS011;6604;52.484;13.330;2023-06-22T12:14:28;5.87;;;4.00;;
13075;SDS011;6604;52.484;13.330;2023-06-22T12:16:58;7.17;;;3.90;;
13075;SDS011;6604;52.484;13.330;2023-06-22T12:19:24;7.53;;;4.30;;
13075;SDS011;6604;52.484;13.330;2023-06-22T12:21:51;4.33;;;3.90;;
13075;SDS011;6604;52.484;13.330;2023-06-22T12:24:19;3.90;;;3.60;;
13075;SDS011;6604;52.484;13.330;2023-06-22T12:26:45;3.33;;;3.03;;
13075;SDS011;6604;52.484;13.330;2023-06-22T12:29:12;4.00;;;3.37;;
13075;SDS011;6604;52.484;13.330;2023-06-22T12:31:39;5.13;;;3.57;;
13075;SDS011;6604;52.484;13.330;2023-06-22T12:34:06;4.57;;;3.70;;
13075;SDS011;6604;52.484;13.330;2023-06-22T12:36:33;4.87;;;4.30;;
13075;SDS011;6604;52.484;13.330;2023-06-22T12:39:00;4.40;;;4.00;;
13075;SDS011;6604;52.484;13.330;2023-06-22T12:41:27;4.40;;;3.67;;
13075;SDS011;6604;52.484;13.330;2023-06-22T12:43:56;3.97;;;3.20;;
13075;SDS011;6604;52.484;13.330;2023-06-22T12:46:22;3.70;;;3.40;;
13075;SDS011;6604;52.484;13.330;2023-06-22T12:48:49;5.17;;;3.80;;
13075;SDS011;6604;52.484;13.330;2023-06-22T12:51:20;4.40;;;4.00;;
13075;SDS011;6604;52.484;13.330;2023-06-22T12:53:47;6.23;;;4.53;;
13075;SDS011;6604;52.484;13.330;2023-06-22T12:56:16;4.47;;;4.07;;
13075;SDS011;6604;52.484;13.330;2023-06-22T12:58:44;12.30;;;4.37;;
13075;SDS011;6604;52.484;13.330;2023-06-22T13:01:11;4.63;;;3.87;;
13075;SDS011;6604;52.484;13.330;2023-06-22T13:03:37;12.37;;;11.10;;
13075;SDS011;6604;52.484;13.330;2023-06-22T13:06:06;4.10;;;3.80;;
13075;SDS011;6604;52.484;13.330;2023-06-22T13:08:32;4.03;;;3.70;;
13075;SDS011;6604;52.484;13.330;2023-06-22T13:10:59;7.23;;;4.13;;
13075;SDS011;6604;52.484;13.330;2023-06-22T13:13:25;7.90;;;4.57;;
13075;SDS011;6604;52.484;13.330;2023-06-22T13:15:57;7.80;;;4.27;;
13075;SDS011;6604;52.484;13.330;2023-06-22T13:18:23;4.80;;;4.30;;
13075;SDS011;6604;52.484;13.330;2023-06-22T13:20:53;4.87;;;4.10;;
13075;SDS011;6604;52.484;13.330;2023-06-22T13:23:20;4.43;;;4.03;;
13075;SDS011;6604;52.484;13.330;2023-06-22T13:25:46;5.00;;;4.50;;
13075;SDS011;6604;52.484;13.330;2023-06-22T13:28:13;4.10;;;3.80;;
13075;SDS011;6604;52.484;13.330;2023-06-22T13:30:41;6.17;;;4.20;;
13075;SDS011;6604;52.484;13.330;2023-06-22T13:33:09;5.10;;;4.20;;
13075;SDS011;6604;52.484;13.330;2023-06-22T13:35:39;4.77;;;4.37;;
13075;SDS011;6604;52.484;13.330;2023-06-22T13:38:09;6.03;;;4.00;;
13075;SDS011;6604;52.484;13.330;2023-06-22T13:40:35;4.80;;;4.40;;
13075;SDS011;6604;52.484;13.330;2023-06-22T13:43:02;6.50;;;4.60;;
13075;SDS011;6604;52.484;13.330;2023-06-22T13:45:29;5.20;;;4.73;;
13075;SDS011;6604;52.484;13.330;2023-06-22T13:47:56;4.63;;;4.23;;
13075;SDS011;6604;52.484;13.330;2023-06-22T13:50:24;5.73;;;4.53;;
13075;SDS011;6604;52.484;13.330;2023-06-22T13:52:50;7.97;;;4.17;;
13075;SDS011;6604;52.484;13.330;2023-06-22T13:55:17;6.33;;;4.10;;
13075;SDS011;6604;52.484;13.330;2023-06-22T13:57:47;5.13;;;4.20;;
13075;SDS011;6604;52.484;13.330;2023-06-22T14:00:14;4.60;;;4.17;;
13075;SDS011;6604;52.484;13.330;2023-06-22T14:02:41;5.50;;;4.17;;
13075;SDS011;6604;52.484;13.330;2023-06-22T14:05:08;4.57;;;4.00;;
13075;SDS011;6604;52.484;13.330;2023-06-22T14:07:37;4.97;;;4.50;;
13075;SDS011;6604;52.484;13.330;2023-06-22T14:10:04;4.67;;;4.27;;
13075;SDS011;6604;52.484;13.330;2023-06-22T14:12:33;5.77;;;4.30;;
13075;SDS011;6604;52.484;13.330;2023-06-22T14:15:00;4.63;;;4.23;;
13075;SDS011;6604;52.484;13.330;2023-06-22T14:17:26;5.20;;;4.33;;
13075;SDS011;6604;52.484;13.330;2023-06-22T14:19:53;5.87;;;4.20;;
13075;SDS011;6604;52.484;13.330;2023-06-22T14:22:20;4.60;;;4.10;;
13075;SDS011;6604;52.484;13.330;2023-06-22T14:24:48;6.20;;;4.30;;
13075;SDS011;6604;52.484;13.330;2023-06-22T14:27:18;5.47;;;4.90;;
13075;SDS011;6604;52.484;13.330;2023-06-22T14:29:59;6.97;;;4.73;;
13075;SDS011;6604;52.484;13.330;2023-06-22T14:32:47;4.90;;;4.17;;
13075;SDS011;6604;52.484;13.330;2023-06-22T14:41:35;4.60;;;4.20;;
13075;SDS011;6604;52.484;13.330;2023-06-22T14:44:02;4.77;;;4.27;;
13075;SDS011;6604;52.484;13.330;2023-06-22T14:46:28;4.53;;;4.13;;
13075;SDS011;6604;52.484;13.330;2023-06-22T14:48:55;4.87;;;3.70;;
13075;SDS011;6604;52.484;13.330;2023-06-22T14:51:22;4.90;;;4.40;;
13075;SDS011;6604;52.484;13.330;2023-06-22T14:53:48;4.63;;;4.23;;
13075;SDS011;6604;52.484;13.330;2023-06-22T14:56:15;4.53;;;4.13;;
13075;SDS011;6604;52.484;13.330;2023-06-22T14:58:44;4.40;;;4.00;;
13075;SDS011;6604;52.484;13.330;2023-06-22T15:01:14;4.53;;;4.10;;
13075;SDS011;6604;52.484;13.330;2023-06-22T15:03:40;4.17;;;3.77;;
13075;SDS011;6604;52.484;13.330;2023-06-22T15:06:07;4.40;;;4.00;;
13075;SDS011;6604;52.484;13.330;2023-06-22T15:08:34;4.57;;;4.03;;
13075;SDS011;6604;52.484;13.330;2023-06-22T15:11:00;5.10;;;4.60;;
13075;SDS011;6604;52.484;13.330;2023-06-22T15:13:27;4.70;;;4.30;;
13075;SDS011;6604;52.484;13.330;2023-06-22T15:15:56;6.27;;;4.27;;
13075;SDS011;6604;52.484;13.330;2023-06-22T15:18:22;6.53;;;4.60;;
13075;SDS011;6604;52.484;13.330;2023-06-22T15:20:49;4.63;;;4.20;;
13075;SDS011;6604;52.484;13.330;2023-06-22T15:23:15;5.30;;;4.80;;
13075;SDS011;6604;52.484;13.330;2023-06-22T15:25:45;4.50;;;4.10;;
13075;SDS011;6604;52.484;13.330;2023-06-22T15:28:12;4.03;;;3.73;;
13075;SDS011;6604;52.484;13.330;2023-06-22T15:30:38;6.17;;;4.77;;
13075;SDS011;6604;52.484;13.330;2023-06-22T15:33:06;4.90;;;4.37;;
13075;SDS011;6604;52.484;13.330;2023-06-22T15:35:33;4.63;;;4.23;;
13075;SDS011;6604;52.484;13.330;2023-06-22T15:37:59;5.13;;;4.70;;
13075;SDS011;6604;52.484;13.330;2023-06-22T15:40:27;4.63;;;3.93;;
13075;SDS011;6604;52.484;13.330;2023-06-22T15:42:53;5.33;;;4.67;;
13075;SDS011;6604;52.484;13.330;2023-06-22T15:45:20;7.00;;;4.37;;
13075;SDS011;6604;52.484;13.330;2023-06-22T15:47:46;5.20;;;4.70;;
13075;SDS011;6604;52.484;13.330;2023-06-22T15:50:14;5.20;;;4.50;;
13075;SDS011;6604;52.484;13.330;2023-06-22T15:52:40;5.23;;;4.73;;
13075;SDS011;6604;52.484;13.330;2023-06-22T15:55:07;4.77;;;4.37;;
13075;SDS011;6604;52.484;13.330;2023-06-22T15:57:34;4.50;;;4.13;;
13075;SDS011;6604;52.484;13.330;2023-06-22T16:00:01;5.30;;;4.77;;
13075;SDS011;6604;52.484;13.330;2023-06-22T16:02:28;5.63;;;4.43;;
13075;SDS011;6604;52.484;13.330;2023-06-22T16:04:54;4.67;;;4.27;;
13075;SDS011;6604;52.484;13.330;2023-06-22T16:07:23;5.27;;;4.77;;
13075;SDS011;6604;52.484;13.330;2023-06-22T16:09:49;5.00;;;4.53;;
13075;SDS011;6604;52.484;13.330;2023-06-22T16:12:16;4.90;;;4.40;;
13075;SDS011;6604;52.484;13.330;2023-06-22T16:14:43;5.40;;;4.90;;
13075;SDS011;6604;52.484;13.330;2023-06-22T16:17:09;5.73;;;5.17;;
13075;SDS011;6604;52.484;13.330;2023-06-22T16:19:35;5.10;;;4.60;;
13075;SDS011;6604;52.484;13.330;2023-06-22T16:22:02;6.37;;;4.70;;
13075;SDS011;6604;52.484;13.330;2023-06-22T16:24:30;5.00;;;4.60;;
13075;SDS011;6604;52.484;13.330;2023-06-22T16:26:57;5.70;;;5.10;;
13075;SDS011;6604;52.484;13.330;2023-06-22T16:29:23;4.77;;;4.27;;
13075;SDS011;6604;52.484;13.330;2023-06-22T16:31:50;6.37;;;4.80;;
13075;SDS011;6604;52.484;13.330;2023-06-22T16:34:16;5.10;;;4.63;;
13075;SDS011;6604;52.484;13.330;2023-06-22T16:36:43;6.53;;;4.80;;
13075;SDS011;6604;52.484;13.330;2023-06-22T16:39:09;6.47;;;4.53;;
13075;SDS011;6604;52.484;13.330;2023-06-22T16:41:37;5.50;;;4.67;;
13075;SDS011;6604;52.484;13.330;2023-06-22T16:44:04;5.00;;;4.60;;
13075;SDS011;6604;52.484;13.330;2023-06-22T16:46:31;5.30;;;4.80;;
13075;SDS011;6604;52.484;13.330;2023-06-22T16:48:59;5.63;;;4.73;;
13075;SDS011;6604;52.484;13.330;2023-06-22T16:51:25;5.80;;;5.20;;
13075;SDS011;6604;52.484;13.330;2023-06-22T16:53:53;6.20;;;4.90;;
13075;SDS011;6604;52.484;13.330;2023-06-22T16:56:22;5.50;;;5.00;;
13075;SDS011;6604;52.484;13.330;2023-06-22T16:58:51;5.40;;;4.90;;
13075;SDS011;6604;52.484;13.330;2023-06-22T17:01:19;5.13;;;4.63;;
13075;SDS011;6604;52.484;13.330;2023-06-22T17:03:48;5.40;;;4.90;;
13075;SDS011;6604;52.484;13.330;2023-06-22T17:06:17;6.63;;;4.83;;
13075;SDS011;6604;52.484;13.330;2023-06-22T17:08:44;5.70;;;5.20;;
13075;SDS011;6604;52.484;13.330;2023-06-22T17:11:11;4.83;;;4.37;;
13075;SDS011;6604;52.484;13.330;2023-06-22T17:13:39;6.20;;;4.93;;
13075;SDS011;6604;52.484;13.330;2023-06-22T17:16:07;5.47;;;4.90;;
13075;SDS011;6604;52.484;13.330;2023-06-22T17:18:35;5.30;;;4.77;;
13075;SDS011;6604;52.484;13.330;2023-06-22T17:21:02;5.30;;;4.80;;
13075;SDS011;6604;52.484;13.330;2023-06-22T17:23:29;4.83;;;4.37;;
13075;SDS011;6604;52.484;13.330;2023-06-22T17:25:57;5.97;;;4.87;;
13075;SDS011;6604;52.484;13.330;2023-06-22T17:28:25;4.83;;;4.43;;
13075;SDS011;6604;52.484;13.330;2023-06-22T17:33:35;4.90;;;4.47;;
13075;SDS011;6604;52.484;13.330;2023-06-22T17:36:02;7.30;;;4.93;;
13075;SDS011;6604;52.484;13.330;2023-06-22T17:38:29;6.23;;;5.20;;
13075;SDS011;6604;52.484;13.330;2023-06-22T17:40:59;5.37;;;4.80;;
13075;SDS011;6604;52.484;13.330;2023-06-22T17:43:27;5.20;;;4.70;;
13075;SDS011;6604;52.484;13.330;2023-06-22T17:45:56;5.47;;;4.97;;
13075;SDS011;6604;52.484;13.330;2023-06-22T17:48:22;5.23;;;4.47;;
13075;SDS011;6604;52.484;13.330;2023-06-22T17:50:50;5.37;;;4.90;;
13075;SDS011;6604;52.484;13.330;2023-06-22T17:53:17;4.97;;;4.40;;
13075;SDS011;6604;52.484;13.330;2023-06-22T17:55:44;4.67;;;4.27;;
13075;SDS011;6604;52.484;13.330;2023-06-22T17:58:10;5.20;;;4.60;;
13075;SDS011;6604;52.484;13.330;2023-06-22T18:00:40;6.33;;;4.77;;
13075;SDS011;6604;52.484;13.330;2023-06-22T18:03:08;5.03;;;4.63;;
13075;SDS011;6604;52.484;13.330;2023-06-22T18:05:36;5.73;;;5.23;;
13075;SDS011;6604;52.484;13.330;2023-06-22T18:08:06;5.27;;;4.77;;
13075;SDS011;6604;52.484;13.330;2023-06-22T18:10:33;5.23;;;4.70;;
13075;SDS011;6604;52.484;13.330;2023-06-22T18:13:01;4.90;;;4.50;;
13075;SDS011;6604;52.484;13.330;2023-06-22T18:15:28;5.00;;;4.60;;
13075;SDS011;6604;52.484;13.330;2023-06-22T18:17:55;5.87;;;4.50;;
13075;SDS011;6604;52.484;13.330;2023-06-22T18:20:21;5.47;;;4.97;;
13075;SDS011;6604;52.484;13.330;2023-06-22T18:22:48;5.10;;;4.60;;
13075;SDS011;6604;52.484;13.330;2023-06-22T18:25:16;5.07;;;4.67;;
13075;SDS011;6604;52.484;13.330;2023-06-22T18:27:45;5.97;;;5.03;;
13075;SDS011;6604;52.484;13.330;2023-06-22T18:30:12;5.57;;;5.07;;
13075;SDS011;6604;52.484;13.330;2023-06-22T18:32:39;6.03;;;4.73;;
13075;SDS011;6604;52.484;13.330;2023-06-22T18:35:06;7.03;;;4.90;;
13075;SDS011;6604;52.484;13.330;2023-06-22T18:37:33;5.17;;;4.53;;
13075;SDS011;6604;52.484;13.330;2023-06-22T18:40:01;5.30;;;4.80;;
13075;SDS011;6604;52.484;13.330;2023-06-22T18:42:35;4.83;;;4.43;;
13075;SDS011;6604;52.484;13.330;2023-06-22T18:45:05;4.93;;;4.53;;
13075;SDS011;6604;52.484;13.330;2023-06-22T18:47:54;6.17;;;4.90;;
13075;SDS011;6604;52.484;13.330;2023-06-22T18:50:34;5.23;;;4.60;;
13075;SDS011;6604;52.484;13.330;2023-06-22T18:53:01;4.90;;;4.50;;
13075;SDS011;6604;52.484;13.330;2023-06-22T18:55:28;5.23;;;4.73;;
13075;SDS011;6604;52.484;13.330;2023-06-22T19:00:51;5.43;;;4.70;;
13075;SDS011;6604;52.484;13.330;2023-06-22T19:03:22;5.37;;;4.87;;
13075;SDS011;6604;52.484;13.330;2023-06-22T19:05:54;5.43;;;4.93;;
13075;SDS011;6604;52.484;13.330;2023-06-22T19:08:21;5.27;;;4.77;;
13075;SDS011;6604;52.484;13.330;2023-06-22T19:10:48;5.27;;;4.73;;
13075;SDS011;6604;52.484;13.330;2023-06-22T19:13:20;5.90;;;4.87;;
13075;SDS011;6604;52.484;13.330;2023-06-22T19:15:54;5.77;;;4.73;;
13075;SDS011;6604;52.484;13.330;2023-06-22T19:18:21;5.50;;;5.00;;
13075;SDS011;6604;52.484;13.330;2023-06-22T19:20:47;8.13;;;5.27;;
13075;SDS011;6604;52.484;13.330;2023-06-22T19:23:24;5.70;;;5.10;;
13075;SDS011;6604;52.484;13.330;2023-06-22T19:25:51;4.90;;;4.50;;
13075;SDS011;6604;52.484;13.330;2023-06-22T19:28:25;5.40;;;4.90;;
13075;SDS011;6604;52.484;13.330;2023-06-22T19:30:53;5.70;;;5.20;;
13075;SDS011;6604;52.484;13.330;2023-06-22T19:33:20;8.00;;;5.20;;
13075;SDS011;6604;52.484;13.330;2023-06-22T19:35:47;5.40;;;4.90;;
13075;SDS011;6604;52.484;13.330;2023-06-22T19:38:14;5.40;;;4.90;;
13075;SDS011;6604;52.484;13.330;2023-06-22T19:40:41;5.10;;;4.70;;
13075;SDS011;6604;52.484;13.330;2023-06-22T19:43:07;5.40;;;4.90;;
13075;SDS011;6604;52.484;13.330;2023-06-22T19:45:37;5.33;;;4.83;;
13075;SDS011;6604;52.484;13.330;2023-06-22T19:48:07;5.63;;;5.07;;
13075;SDS011;6604;52.484;13.330;2023-06-22T19:50:34;6.43;;;5.17;;
13075;SDS011;6604;52.484;13.330;2023-06-22T19:53:06;5.27;;;4.77;;
13075;SDS011;6604;52.484;13.330;2023-06-22T19:55:32;5.17;;;4.67;;
13075;SDS011;6604;52.484;13.330;2023-06-22T19:58:00;8.73;;;5.57;;
13075;SDS011;6604;52.484;13.330;2023-06-22T20:00:27;5.50;;;4.87;;
13075;SDS011;6604;52.484;13.330;2023-06-22T20:02:54;5.87;;;5.37;;
13075;SDS011;6604;52.484;13.330;2023-06-22T20:05:22;5.93;;;5.43;;
13075;SDS011;6604;52.484;13.330;2023-06-22T20:07:49;5.43;;;4.93;;
13075;SDS011;6604;52.484;13.330;2023-06-22T20:10:17;5.37;;;4.67;;
13075;SDS011;6604;52.484;13.330;2023-06-22T20:12:47;5.63;;;5.00;;
13075;SDS011;6604;52.484;13.330;2023-06-22T20:15:20;5.27;;;4.77;;
13075;SDS011;6604;52.484;13.330;2023-06-22T20:18:00;5.10;;;4.70;;
13075;SDS011;6604;52.484;13.330;2023-06-22T20:20:29;4.93;;;4.53;;
13075;SDS011;6604;52.484;13.330;2023-06-22T20:22:59;5.67;;;5.17;;
13075;SDS011;6604;52.484;13.330;2023-06-22T20:25:32;6.20;;;4.93;;
13075;SDS011;6604;52.484;13.330;2023-06-22T20:28:03;28.20;;;23.50;;
13075;SDS011;6604;52.484;13.330;2023-06-22T20:30:31;21.27;;;17.30;;
13075;SDS011;6604;52.484;13.330;2023-06-22T20:32:59;8.03;;;6.77;;
13075;SDS011;6604;52.484;13.330;2023-06-22T20:35:28;8.73;;;6.23;;
13075;SDS011;6604;52.484;13.330;2023-06-22T20:37:55;15.23;;;7.30;;
13075;SDS011;6604;52.484;13.330;2023-06-22T20:40:21;25.30;;;8.83;;
13075;SDS011;6604;52.484;13.330;2023-06-22T20:42:53;13.10;;;7.00;;
13075;SDS011;6604;52.484;13.330;2023-06-22T20:45:20;14.47;;;8.30;;
13075;SDS011;6604;52.484;13.330;2023-06-22T20:47:47;13.20;;;7.67;;
13075;SDS011;6604;52.484;13.330;2023-06-22T20:50:13;12.70;;;7.53;;
13075;SDS011;6604;52.484;13.330;2023-06-22T20:52:42;11.57;;;7.53;;
13075;SDS011;6604;52.484;13.330;2023-06-22T20:55:09;11.83;;;7.70;;
13075;SDS011;6604;52.484;13.330;2023-06-22T20:57:36;15.33;;;7.50;;
13075;SDS011;6604;52.484;13.330;2023-06-22T21:00:03;7.20;;;6.13;;
13075;SDS011;6604;52.484;13.330;2023-06-22T21:02:32;11.73;;;6.77;;
13075;SDS011;6604;52.484;13.330;2023-06-22T21:04:59;8.23;;;6.17;;
13075;SDS011;6604;52.484;13.330;2023-06-22T21:07:25;7.97;;;6.10;;
13075;SDS011;6604;52.484;13.330;2023-06-22T21:09:53;8.13;;;6.80;;
13075;SDS011;6604;52.484;13.330;2023-06-22T21:12:20;10.33;;;7.13;;
13075;SDS011;6604;52.484;13.330;2023-06-22T21:14:46;9.70;;;7.83;;
13075;SDS011;6604;52.484;13.330;2023-06-22T21:17:15;9.10;;;7.47;;
13075;SDS011;6604;52.484;13.330;2023-06-22T21:19:42;9.10;;;8.20;;
13075;SDS011;6604;52.484;13.330;2023-06-22T21:22:08;9.50;;;8.47;;
13075;SDS011;6604;52.484;13.330;2023-06-22T21:24:34;8.27;;;7.43;;
13075;SDS011;6604;52.484;13.330;2023-06-22T21:27:02;9.00;;;7.43;;
13075;SDS011;6604;52.484;13.330;2023-06-22T21:29:29;9.10;;;7.50;;
